Oranjemund Airport

Jump to: basic info | weather | frequencies | runways | comments

Related pages: nearby airports | nearby navaids | notams | map

Basic information (top)

Codes: OMD FYOG
Location: lon -28.584700, lat 16.446699, elev 14 ft / 4 m msl
Status: medium_airport

Weather (top)

Current conditions (rec'd 2012/03/30 05:00Z):

FYOG 300500Z AUTO 22005KT //// // ////// 19/19 Q1012

Airport forecast for Keetmanshoop Airport 151nm (280km) NE (rec'd 2014/04/15 12:12Z):

TAF COR TAF COR FYKT 151210Z 1512/1618 22005KT 9999 SCT040TCU 
      BECMG 1518/1520 NSC 
      BECMG 1609/1611 05010KT

Frequencies (top)

Verify before use: may be inaccurate or out of date.

AFIS: 118.7 MHz (ALEXANDER BAY RDO)
TWR: 118.7 MHz (ALEXANDER BAY TWR)

Runways (top)

02/20: 5,252 x 59 ft (1,601 x 18 m) — paved — lighted

07/25 [CLOSED]: 3,000 x 47 ft (914 x 14 m) — gravel — not lighted

16/34 [CLOSED]: 3,500 x 60 ft (1,067 x 18 m) — gravel — not lighted

Latest comments (top)

No comments yet for Oranjemund Airport

More... (top)

See also NOTAMs and nearby airports and navaids, or visit the Oranjemund Airport page at the main OurAirports website..